Ackley, Iowa
Current Conditions -  °F | °C
As of 2:35 PM on Tuesday 25 Nov 2014 (Local Time) from KIFA Reporting Station
Clear Clear  
Wind Chill: 30°   Ceiling: Unl
Heat Index: 30°   Visibility: 10mi
Dew Point: 15°   Wind: 3mph
Humidity: 52%   Direction: 210°SSW
Pressure: 30.07"   Gusts: NA
Location:  42.55°N, 93.05°W
Report Text: KIFA 252035Z AUTO 21003KT 10SM CLR M01/M10 A3007 RMK AO2 T10101097
Loading
Personal Weather Stations






























Interactive Weather Map New forecast layout! Learn more

10-Day Weather Forecast

Advertisements
Track Severe Weather on mobile